Lake City, Minnesota
Current Conditions -  °F | °C
As of 11:31 PM on Saturday 20 Dec 2014 (Local Time) from KRGK Reporting Station
Overcast Overcast  
Wind Chill: 28°   Ceiling: 2100
Heat Index: 34°   Visibility: 10mi
Dew Point: 27°   Wind: 7mph
Humidity: 75%   Direction: 130°SE
Pressure: 30.09"   Gusts: NA
Location:  44.45°N, 92.27°W
Report Text: KRGK 210531Z AUTO 13006KT 10SM OVC021 01/M03 A3009 RMK AO2
Loading
Personal Weather Stations






























Interactive Weather Map New forecast layout! Learn more

10-Day Weather Forecast

Advertisements
Track Severe Weather on mobile